Tiempo atmosférico en la estación meteorológica de Zafra, Badajoz (433 m.)



Fecha
DESCASC
Temp. máxima en grados centígrados (hora)
DESCASC
Temp. mínima en grados centígrados (hora)
DESCASC
Temp. media en grados centígrados
DESCASC
Racha de viento máxima en m/sg (hora)
DESCASC
Velocidad máxima media en intervalos de 10 minutos(hora)
DESCASC
Precipitaciones diarias en mm
DESCASC
Precipitaciones de 00:00 a 06:00 en mm
DESCASC
Precipitaciones de 06:00 a 12:00 en mm
DESCASC
Precipitaciones de 12:00 a 18:00 en mm
DESCASC
Precipitaciones de 18:00 a 24:00 en mm
DESCASC
08-12-2019 15.2 (14:00) 3.1 (08:10) 9.1 5.83 (15:20) 4.17 (14:30) 0.2 0 0 0 0.2
07-12-2019 14.8 (16:30) 2.6 (08:20) 8.7 5 (14:30) 3.89 (14:30) 0 0 0 0 0
06-12-2019 15.6 (16:00) 3.2 (08:30) 9.4 6.11 (02:30) 3.61 (02:30) 0 0 0 0 0
05-12-2019 14.6 (15:30) 4.9 (00:00) 9.8 9.44 (14:10) 4.72 (14:00) 0 0 0 0 0
04-12-2019 12.2 (12:20) 5.6 (00:00) 8.9 5 (15:30) 3.61 (15:40) 0 0 0 0 0
03-12-2019 13.8 (15:50) 4.4 (00:00) 9.1 10 (14:00) 4.44 (14:00) 0 0 0 0 0
02-12-2019 13.8 (14:20) 7.3 (00:00) 10.6 10.28 (15:10) 5.56 (15:40) 1.4 1 0.4 0 0
01-12-2019 12.8 (14:00) 8.9 (00:00) 10.8 7.22 (13:50) 3.33 (10:20) 5.2 0 2.8 1.2 1.2
30-11-2019 15.2 (16:50) 8.3 (00:00) 11.8 10.56 (15:20) 6.39 (15:20) 1.6 0 0 0 1.6
29-11-2019 17.5 (14:40) 9.2 (00:00) 13.3 6.39 (11:50) 3.89 (05:50) 0 0 0 0 0
28-11-2019 15.7 (12:00) 10.5 (00:00) 13.1 6.67 (19:00) 3.61 (20:40) 0 0 0 0 0
27-11-2019 15.8 (13:30) 9.9 (00:00) 12.8 9.72 (03:20) 5.83 (03:20) 2 0.8 1.2 0 0
26-11-2019 18.2 (16:20) 12 (00:00) 15.1 12.5 (16:00) 5.83 (18:40) 3.4 0 0.4 0 3
25-11-2019 17.6 (16:10) 11.3 (00:00) 14.5 15.28 (04:20) 6.11 (02:10) 3 0.4 2.6 0 0
24-11-2019 14.5 (15:00) 3.2 (00:00) 8.9 8.61 (21:50) 6.11 (21:50) 0 0 0 0 0
23-11-2019 13.4 (15:50) 8.9 (00:00) 11.1 17.22 (00:40) 9.72 (01:20) 0.8 0.8 0 0 0
22-11-2019 15.3 (14:50) 10.9 (00:00) 13.1 19.72 (15:50) 10.83 (15:50) 21.2 0 6.6 14.6 0
21-11-2019 13.4 (16:30) 10.1 (00:00) 11.8 7.5 (08:10) 4.17 (06:20) 2.4 0.2 1.4 0.8 0
20-11-2019 12.7 (16:20) 4.7 (00:00) 8.7 8.61 (13:20) 5.28 (12:10) 9.2 0 7.8 0 1.4
19-11-2019 13.4 (14:20) 2.5 (00:00) 7.9 5.83 (12:40) 3.06 (13:20) 0 0 0 0 0
18-11-2019 12.7 (16:00) 3.7 (00:00) 8.2 11.11 (01:20) 7.78 (01:20) 0 0 0 0 0
17-11-2019 13.8 (15:30) 4.8 (00:00) 9.3 10.28 (20:20) 5.83 (20:30) 10.8 0.2 0.2 1.4 9
16-11-2019 12.3 (15:50) -1.6 (-00:0) 5.4 6.94 (17:00) 5 (17:00) 0 0 0 0 0
15-11-2019 11.5 (15:20) 3.9 (00:00) 7.7 12.22 (03:20) 7.78 (05:40) 0 0 0 0 0
14-11-2019 11.3 (14:50) 7.6 (00:00) 9.5 18.89 (15:20) 11.94 (18:10) 1.8 0 1.8 0 0
13-11-2019 18.8 (14:50) 10.3 (00:00) 14.5 12.22 (04:10) 7.22 (12:10) 0.2 0 0.2 0 0
12-11-2019 15.5 (15:30) 4.5 (00:00) 10 12.22 (13:20) 8.61 (13:20) 0 0 0 0 0
11-11-2019 16 (17:10) 9 (00:40) 12.5 8.33 (14:20) 5.28 (17:30) 2 1.6 0.4 0 0

Gráficas

Temp. máximas Temp. mínimas Temp. medias Precipitaciones Rachas de viento máximas Velocidades máximas media en intervalos de 10 minutos

Datos horarios

Fecha y hora oficial Temperatura (ºC) Velocidad del viento (km/h) Dirección del viento Racha (km/h) Dirección de racha Precipitación (mm) Presión (hPa) Tendencia (hPa) Humedad (%)
2019-12-10 23:00:00 4.6 5 Sudeste 7 Sudeste 0 -- -- 98
2019-12-10 22:00:00 5.6 0 Calma 10 Sudeste 0 -- -- 97
2019-12-10 21:00:00 6.5 5 Sudeste 11 Sur 0 -- -- 97
2019-12-10 20:00:00 6.6 7 Sudeste 8 Sudeste 0 -- -- 97
2019-12-10 19:00:00 7.4 3 Sudeste 4 Sudeste 0 -- -- 94
2019-12-10 18:00:00 8.9 2 Noroeste 11 Noroeste 0 -- -- 92
2019-12-10 17:00:00 9.8 8 Noroeste 13 Noroeste 0 -- -- 91
2019-12-10 16:00:00 10.3 9 Noroeste 13 Noroeste 0 -- -- 89
2019-12-10 15:00:00 10.6 10 Noroeste 14 Noroeste 0 -- -- 88
2019-12-10 14:00:00 10.4 4 Oeste 9 Oeste 0 -- -- 88
2019-12-10 13:00:00 7.7 3 Noroeste 10 Noroeste 0 -- -- 99
2019-12-10 12:00:00 6.7 3 Noroeste 6 Norte 0 -- -- 100
2019-12-10 11:00:00 5.9 3 Noroeste 6 Sudoeste 0 -- -- 100
2019-12-10 10:00:00 5.3 4 Sudoeste 8 Sudeste 0 -- -- 100
2019-12-10 09:00:00 5 4 Sur 14 Sur 0 -- -- 99
2019-12-10 08:00:00 4.4 10 Sur 15 Sur 0 -- -- 99
2019-12-10 07:00:00 4.7 10 Sur 19 Sur 0.2 -- -- 99
2019-12-10 06:00:00 3.7 11 Sur 16 Sur 0 -- -- 99
2019-12-10 05:00:00 2.8 5 Sudeste 11 Sudeste 0 -- -- 98
2019-12-10 04:00:00 3.4 8 Sudeste 10 Sur 0 -- -- 98
2019-12-10 03:00:00 3.5 8 Sudeste 11 Sudeste 0 -- -- 98
2019-12-10 02:00:00 3.9 8 Sudeste 10 Sur 0 -- -- 97
2019-12-10 01:00:00 4.5 7 Sudeste 10 Sudeste 0 -- -- 98
2019-12-10 00:00:00 4.2 6 Sur 8 Sudeste 0 -- -- 97
2019-12-09 23:00:00 4.7 5 Sudeste 8 Sudeste 0 -- -- 96
2019-12-09 22:00:00 5.6 5 Sudeste 8 Sudeste 0 -- -- 96
2019-12-09 21:00:00 6.4 4 Sudeste 6 Sudeste 0 -- -- 94
2019-12-09 20:00:00 8 5 Sudeste 6 Sudeste 0 -- -- 92
2019-12-09 19:00:00 9.8 3 Noroeste 10 Noroeste 0 -- -- 85
2019-12-09 18:00:00 13.1 8 Norte 15 Norte 0 -- -- 73
2019-12-09 17:00:00 14.3 10 Norte 15 Norte 0 -- -- 68
2019-12-09 16:00:00 14.8 9 Noroeste 18 Noroeste 0 -- -- 69
2019-12-09 15:00:00 14.4 10 Noroeste 20 Noroeste 0 -- -- 75
2019-12-09 14:00:00 13.9 9 Noroeste 14 Noroeste 0 -- -- 79
2019-12-09 13:00:00 12.9 6 Norte 10 Norte 0 -- -- 83
2019-12-09 12:00:00 11.7 0 Calma 5 Norte 0 -- -- 94
2019-12-09 11:00:00 10.9 0 Calma 9 Noroeste 0 -- -- 99
2019-12-09 10:00:00 10.3 6 Norte 10 Noroeste 0 -- -- 100
2019-12-09 09:00:00 10.5 8 Norte 13 Norte 0 -- -- 100
2019-12-09 08:00:00 10.9 5 Norte 12 Noroeste 0 -- -- 99
2019-12-09 07:00:00 11.2 8 Noroeste 14 Norte 0 -- -- 99
2019-12-09 06:00:00 11.7 12 Norte 17 Noroeste 0 -- -- 99
2019-12-09 05:00:00 12.5 12 Norte 16 Noroeste 0 -- -- 99
2019-12-09 04:00:00 12.4 3 Noroeste 6 Este 0 -- -- 99
2019-12-09 03:00:00 12.2 0 Calma 4 Este 0.2 -- -- 98
2019-12-09 02:00:00 12 0 Calma 2 Sudeste 0 -- -- 98
2019-12-09 01:00:00 12 0 Calma 3 Oeste 0.2 -- -- 98
2019-12-09 00:00:00 11.8 0 Calma 4 Sur 0 -- -- 98
2019-12-08 23:00:00 11.7 2 Sudeste 3 Sudeste 0 -- -- 98
2019-12-08 22:00:00 11.4 2 Sudeste 3 Sur 0 -- -- 97
2019-12-08 21:00:00 11.3 0 Calma 3 Sudeste 0 -- -- 96
2019-12-08 20:00:00 11.9 0 Calma 6 Noroeste 0.2 -- -- 96
2019-12-08 19:00:00 12.3 3 Noroeste 7 Noroeste 0 -- -- 94
2019-12-08 18:00:00 13.2 5 Noroeste 8 Norte 0 -- -- 90
2019-12-08 17:00:00 13.6 6 Noroeste 13 Noroeste 0 -- -- 89
2019-12-08 16:00:00 13.5 9 Noroeste 21 Noroeste 0 -- -- 89
2019-12-08 15:00:00 14.2 12 Noroeste 20 Norte 0 -- -- 79
2019-12-08 14:00:00 15.2 3 Norte 10 Sudeste 0 -- -- 65
2019-12-08 13:00:00 14.1 7 Sur 10 Sur 0 -- -- 71
2019-12-08 12:00:00 12.9 3 Sudeste 7 Sudeste 0 -- -- 76
2019-12-08 11:00:00 10.9 5 Sudeste 11 Sur 0 -- -- 84
2019-12-08 10:00:00 7.2 8 Sur 13 Sur 0 -- -- 94
2019-12-08 09:00:00 3.8 8 Sur 10 Sur 0 -- -- 98
2019-12-08 08:00:00 3.4 8 Sur 12 Sur 0 -- -- 98
2019-12-08 07:00:00 3.3 7 Sudeste 10 Sudeste 0 -- -- 98
2019-12-08 06:00:00 3.6 6 Sur 13 Sudeste 0 -- -- 98
2019-12-08 05:00:00 3.4 8 Sudeste 13 Sudeste 0 -- -- 97
2019-12-08 04:00:00 3.9 11 Sudeste 13 Sudeste 0 -- -- 97
2019-12-08 03:00:00 4.6 7 Sur 10 Sudeste 0 -- -- 97
2019-12-08 02:00:00 4.3 9 Sudeste 11 Sudeste 0 -- -- 97
2019-12-08 01:00:00 4.7 7 Sudeste 9 Sudeste 0 -- -- 96
2019-12-08 00:00:00 5.5 7 Sur 12 Sudeste 0 -- -- 97
2019-12-07 23:00:00 5.3 6 Sudeste 8 Sudeste 0 -- -- 96
2019-12-07 22:00:00 5.6 5 Sudeste 9 Sudeste 0 -- -- 95
2019-12-07 21:00:00 6.3 5 Sudeste 7 Sur 0 -- -- 95
2019-12-07 20:00:00 7.1 5 Sudeste 6 Sudeste 0 -- -- 93
2019-12-07 19:00:00 8.8 2 Sur 5 Noroeste 0 -- -- 89
2019-12-07 18:00:00 11.5 0 Calma 7 Noroeste 0 -- -- 79
2019-12-07 17:00:00 13.4 6 Noroeste 16 Noroeste 0 -- -- 70
2019-12-07 16:00:00 14.6 9 Norte 16 Norte 0 -- -- 67
2019-12-07 15:00:00 14 12 Noroeste 18 Noroeste 0 -- -- 72
2019-12-07 14:00:00 13.9 11 Noroeste 15 Noroeste 0 -- -- 72
2019-12-07 13:00:00 13.2 9 Noroeste 13 Norte 0 -- -- 76
2019-12-07 12:00:00 13.3 3 Sudoeste 9 Sudeste 0 -- -- 74
2019-12-07 11:00:00 10.3 3 Sudeste 8 Sudeste 0 -- -- 86
2019-12-07 10:00:00 6.3 5 Sudeste 9 Sudeste 0 -- -- 98
2019-12-07 09:00:00 3.4 6 Sudeste 10 Sudeste 0 -- -- 99
2019-12-07 08:00:00 2.7 5 Sudeste 9 Sudeste 0 -- -- 98
2019-12-07 07:00:00 3 8 Sudeste 10 Sudeste 0 -- -- 98
2019-12-07 06:00:00 3.5 8 Sur 10 Sur 0 -- -- 99
2019-12-07 05:00:00 3.5 2 Sudeste 8 Sudeste 0 -- -- 97
2019-12-07 04:00:00 4.2 5 Sur 12 Sudeste 0 -- -- 98
2019-12-07 03:00:00 3.9 6 Sudeste 9 Sudeste 0 -- -- 98
2019-12-07 02:00:00 4.6 4 Sudeste 6 Sur 0 -- -- 98
2019-12-07 01:00:00 5.4 5 Noroeste 6 Noroeste 0 -- -- 97
2019-12-07 00:00:00 4.2 0 Calma 4 Sudeste 0 -- -- 96
2019-12-06 23:00:00 5.1 0 Calma 6 Sudeste 0 -- -- 96
2019-12-06 22:00:00 5.6 3 Sudeste 4 Sudeste 0 -- -- 95
2019-12-06 21:00:00 6.5 0 Calma 4 Este 0 -- -- 93
2019-12-06 20:00:00 8 0 Calma 6 Norte 0 -- -- 90
2019-12-06 19:00:00 9.8 5 Noroeste 8 Noroeste 0 -- -- 86
2019-12-06 18:00:00 12.3 5 Norte 18 Norte 0 -- -- 76
2019-12-06 17:00:00 14.2 12 Norte 19 Norte 0 -- -- 69
2019-12-06 16:00:00 15.6 10 Norte 19 Noroeste 0 -- -- 61
2019-12-06 15:00:00 15.3 10 Norte 18 Norte 0 -- -- 63
2019-12-06 14:00:00 14.1 9 Norte 17 Noroeste 0 -- -- 70
2019-12-06 13:00:00 12.2 13 Noroeste 17 Noroeste 0 -- -- 78
2019-12-06 12:00:00 11 9 Noroeste 12 Noroeste 0 -- -- 82
2019-12-06 11:00:00 8.7 6 Noroeste 11 Noroeste 0 -- -- 92
2019-12-06 10:00:00 6.4 0 Calma 5 Sur 0 -- -- 98
2019-12-06 09:00:00 3.8 2 Sudeste 7 Sur 0 -- -- 99
2019-12-06 08:00:00 3.5 3 Noroeste 5 Noroeste 0 -- -- 97
2019-12-06 07:00:00 4.7 0 Calma 9 Norte 0 -- -- 97
2019-12-06 06:00:00 4.7 7 Noroeste 10 Noroeste 0 -- -- 96
2019-12-06 05:00:00 5.4 4 Noroeste 15 Noroeste 0 -- -- 95
2019-12-06 04:00:00 6.5 7 Noroeste 13 Noroeste 0 -- -- 92
2019-12-06 03:00:00 7.5 3 Oeste 22 Sudeste 0 -- -- 87
2019-12-06 02:00:00 7 9 Sudeste 15 Sudeste 0 -- -- 92
2019-12-06 01:00:00 7.2 2 Sudeste 10 Noroeste 0 -- -- 89
2019-12-06 00:00:00 8.6 5 Noroeste 10 Noroeste 0 -- -- 83
2019-12-05 23:00:00 9.8 2 Norte 14 Norte 0 -- -- 79
2019-12-05 22:00:00 9.5 4 Noroeste 8 Noroeste 0 -- -- 80
2019-12-05 21:00:00 10.8 4 Noroeste 10 Nordeste 0 -- -- 74
2019-12-05 20:00:00 12 3 Este 12 Este 0 -- -- 67
2019-12-05 19:00:00 11.7 3 Norte 12 Norte 0 -- -- 68
2019-12-05 18:00:00 12.8 4 Nordeste 18 Este 0 -- -- 66
2019-12-05 17:00:00 13.3 12 Nordeste 23 Nordeste 0 -- -- 61
2019-12-05 16:00:00 13.7 13 Nordeste 27 Nordeste 0 -- -- 62
2019-12-05 15:00:00 14.3 13 Nordeste 34 Nordeste 0 -- -- 61
2019-12-05 14:00:00 14 17 Nordeste 31 Nordeste 0 -- -- 62
2019-12-05 13:00:00 13.4 13 Nordeste 28 Nordeste 0 -- -- 64
2019-12-05 12:00:00 10.6 10 Noroeste 14 Norte 0 -- -- 84
2019-12-05 11:00:00 8.8 9 Noroeste 12 Noroeste 0 -- -- 91
2019-12-05 10:00:00 7 8 Noroeste 12 Noroeste 0 -- -- 99
2019-12-05 09:00:00 5.4 7 Noroeste 9 Noroeste 0 -- -- 99
2019-12-05 08:00:00 5 5 Noroeste 12 Noroeste 0 -- -- 99
2019-12-05 07:00:00 5.1 8 Noroeste 10 Noroeste 0 -- -- 98
2019-12-05 06:00:00 5.3 3 Noroeste 6 Noroeste 0 -- -- 97
2019-12-05 05:00:00 6.4 5 Noroeste 9 Noroeste 0 -- -- 96
2019-12-05 04:00:00 7.6 6 Noroeste 12 Noroeste 0 -- -- 95
2019-12-05 03:00:00 8.6 8 Noroeste 13 Noroeste 0 -- -- 96
2019-12-05 02:00:00 8.7 7 Noroeste 10 Noroeste 0 -- -- 95
2019-12-05 01:00:00 8.5 6 Noroeste 9 Norte 0 -- -- 94
2019-12-05 00:00:00 8.6 5 Noroeste 6 Noroeste 0 -- -- 92
2019-12-04 23:00:00 8.7 4 Norte 8 Noroeste 0 -- -- 92
2019-12-04 22:00:00 8.8 5 Noroeste 8 Noroeste 0 -- -- 92
2019-12-04 21:00:00 8.6 4 Noroeste 8 Noroeste 0 -- -- 92
2019-12-04 20:00:00 7.5 3 Noroeste 6 Noroeste 0 -- -- 94
2019-12-04 19:00:00 7.9 3 Noroeste 6 Noroeste 0 -- -- 90
2019-12-04 18:00:00 9.3 4 Norte 11 Noroeste 0 -- -- 86
2019-12-04 17:00:00 10.3 9 Noroeste 17 Noroeste 0 -- -- 82
2019-12-04 16:00:00 10.7 13 Noroeste 18 Noroeste 0 -- -- 79
2019-12-04 15:00:00 10.6 10 Norte 16 Norte 0 -- -- 86
2019-12-04 14:00:00 10 10 Noroeste 18 Oeste 0 -- -- 87
2019-12-04 13:00:00 11.4 3 Noroeste 10 Oeste 0 -- -- 75
2019-12-04 12:00:00 11.6 6 Sudeste 11 Sur 0 -- -- 76
2019-12-04 11:00:00 9.2 2 Sur 7 Sudeste 0 -- -- 90
2019-12-04 10:00:00 6.8 2 Sudeste 5 Sudeste 0 -- -- 98
2019-12-04 09:00:00 5.7 0 Calma 6 Noroeste 0 -- -- 98
2019-12-04 08:00:00 6 0 Calma 3 Este 0 -- -- 97
2019-12-04 07:00:00 6.2 2 Sur 8 Nordeste 0 -- -- 97
2019-12-04 06:00:00 6.9 3 Noroeste 5 Noroeste 0 -- -- 97
2019-12-04 05:00:00 7.3 0 Calma 3 Sudoeste 0 -- -- 97
2019-12-04 04:00:00 7.2 0 Calma 3 Nordeste 0 -- -- 97
2019-12-04 03:00:00 6.8 0 Calma 3 Noroeste 0 -- -- 97
2019-12-04 02:00:00 6.1 0 Calma 4 Sudeste 0 -- -- 96
2019-12-04 01:00:00 6.9 2 Sudeste 6 Sudeste 0 -- -- 93
2019-12-04 00:00:00 8 3 Noroeste 6 Noroeste 0 -- -- 94
2019-12-03 23:00:00 7.2 4 Noroeste 5 Norte 0 -- -- 94
2019-12-03 22:00:00 7 2 Noroeste 4 Noroeste 0 -- -- 91
2019-12-03 21:00:00 9.1 2 Norte 5 Nordeste 0 -- -- 84
2019-12-03 20:00:00 11.3 2 Nordeste 8 Nordeste 0 -- -- 74
2019-12-03 19:00:00 11.8 3 Nordeste 12 Nordeste 0 -- -- 74
2019-12-03 18:00:00 12.2 5 Nordeste 17 Nordeste 0 -- -- 71
2019-12-03 17:00:00 12.6 9 Norte 20 Nordeste 0 -- -- 72
2019-12-03 16:00:00 13.2 12 Nordeste 22 Norte 0 -- -- 68
2019-12-03 15:00:00 13.3 14 Norte 22 Norte 0 -- -- 69
2019-12-03 14:00:00 13.2 16 Nordeste 36 Nordeste 0 -- -- 69
2019-12-03 13:00:00 12.4 13 Norte 22 Norte 0 -- -- 71
2019-12-03 12:00:00 11.2 10 Norte 21 Norte 0 -- -- 75
2019-12-03 11:00:00 9.8 12 Noroeste 19 Noroeste 0 -- -- 79
2019-12-03 10:00:00 8 11 Noroeste 14 Oeste 0 -- -- 84
2019-12-03 09:00:00 5.9 5 Noroeste 15 Oeste 0 -- -- 89
2019-12-03 08:00:00 4.5 5 Noroeste 10 Norte 0 -- -- 94
2019-12-03 07:00:00 5.4 12 Noroeste 17 Noroeste 0 -- -- 95
2019-12-03 06:00:00 4.6 8 Noroeste 12 Norte 0 -- -- 96
2019-12-03 05:00:00 5.3 9 Noroeste 12 Noroeste 0 -- -- 96
2019-12-03 04:00:00 5.5 6 Noroeste 9 Noroeste 0 -- -- 96
2019-12-03 03:00:00 5.5 2 Sudoeste 8 Norte 0 -- -- 96
2019-12-03 02:00:00 5.8 3 Noroeste 8 Oeste 0 -- -- 95
2019-12-03 01:00:00 6.4 5 Noroeste 10 Norte 0 -- -- 93
2019-12-03 00:00:00 7.3 5 Noroeste 7 Norte 0 -- -- 90
2019-12-02 23:00:00 8.9 5 Noroeste 12 Noroeste 0 -- -- 84
2019-12-02 22:00:00 9.5 6 Norte 15 Norte 0 -- -- 82
2019-12-02 21:00:00 10.1 6 Norte 17 Nordeste 0 -- -- 80
2019-12-02 20:00:00 10.4 9 Nordeste 30 Nordeste 0 -- -- 78
2019-12-02 19:00:00 10.2 10 Nordeste 22 Nordeste 0 -- -- 79
2019-12-02 18:00:00 11.2 12 Nordeste 30 Este 0 -- -- 74
2019-12-02 17:00:00 11.9 16 Nordeste 37 Nordeste 0 -- -- 71
2019-12-02 16:00:00 12.7 19 Nordeste 37 Nordeste 0 -- -- 68
2019-12-02 15:00:00 12.8 16 Nordeste 33 Este 0 -- -- 70
2019-12-02 14:00:00 13.3 19 Este 33 Nordeste 0 -- -- 69
2019-12-02 13:00:00 11.7 16 Nordeste 32 Nordeste 0 -- -- 81
2019-12-02 12:00:00 10.8 13 Nordeste 32 Nordeste 0 -- -- 83
2019-12-02 11:00:00 10.4 11 Nordeste 24 Nordeste 0 -- -- 86
2019-12-02 10:00:00 9 8 Nordeste 28 Nordeste 0.2 -- -- 93
2019-12-02 09:00:00 8.5 10 Nordeste 25 Nordeste 0 -- -- 93
2019-12-02 08:00:00 8.4 8 Norte 24 Nordeste 0 -- -- 95
2019-12-02 07:00:00 7.9 10 Norte 17 Noroeste 0.2 -- -- 97
2019-12-02 06:00:00 8.1 11 Norte 18 Norte 0 -- -- 96
2019-12-02 05:00:00 8.3 7 Noroeste 14 Norte 0 -- -- 97
2019-12-02 04:00:00 8.1 8 Norte 16 Noroeste 0 -- -- 98
2019-12-02 03:00:00 8.1 10 Noroeste 17 Noroeste 0 -- -- 98
2019-12-02 02:00:00 8.3 12 Noroeste 17 Noroeste 0.4 -- -- 97
2019-12-02 01:00:00 8.8 9 Norte 21 Noroeste 0.6 -- -- 95
2019-12-02 00:00:00 9.3 9 Norte 19 Norte 0 -- -- 95
2019-12-01 23:00:00 9.5 5 Noroeste 12 Noroeste 0 -- -- 96
2019-12-01 22:00:00 9.7 3 Noroeste 4 Este 0.4 -- -- 96
2019-12-01 21:00:00 9.7 2 Este 5 Sur 0 -- -- 94
2019-12-01 20:00:00 10.2 4 Sur 15 Sur 0 -- -- 92
2019-12-01 19:00:00 10.2 5 Sur 12 Sudeste 0.8 -- -- 93
2019-12-01 18:00:00 10.6 6 Sudoeste 17 Oeste 0.6 -- -- 89
2019-12-01 17:00:00 11.3 4 Sudeste 12 Sudeste 0.2 -- -- 85
2019-12-01 16:00:00 12 4 Oeste 18 Sudoeste 0 -- -- 82
2019-12-01 15:00:00 11.7 6 Sudoeste 21 Sur 0.4 -- -- 84
2019-12-01 14:00:00 12.8 10 Oeste 26 Noroeste 0 -- -- 80
2019-12-01 13:00:00 11.6 7 Noroeste 21 Noroeste 0 -- -- 85
2019-12-01 12:00:00 10.8 6 Oeste 24 Oeste 1.8 -- -- 93
2019-12-01 11:00:00 10.7 7 Norte 23 Sudeste 0.2 -- -- 92
2019-12-01 10:00:00 10.3 6 Sur 22 Sudoeste 0 -- -- 92
2019-12-01 09:00:00 10.1 4 Oeste 18 Sur 0 -- -- 91
2019-12-01 08:00:00 10.1 3 Sudoeste 15 Oeste 0.6 -- -- 91
2019-12-01 07:00:00 10 8 Sudeste 22 Sudeste 0.2 -- -- 92
2019-12-01 06:00:00 10.2 7 Sudoeste 21 Sur 0 -- -- 89
2019-12-01 05:00:00 10.1 7 Sudoeste 22 Sur 0 -- -- 91
2019-12-01 04:00:00 9.3 7 Sur 15 Sur 0 -- -- 93
2019-12-01 03:00:00 9.7 4 Sudoeste 14 Sudoeste 0 -- -- 88
2019-12-01 02:00:00 10.1 4 Oeste 24 Oeste 0 -- -- 86
2019-12-01 01:00:00 10.2 4 Oeste 15 Oeste 0 -- -- 91
2019-12-01 00:00:00 10.2 5 Oeste 8 Oeste 0 -- -- 91
2019-11-30 23:00:00 11.3 2 Sudoeste 17 Noroeste 0.2 -- -- 92
2019-11-30 22:00:00 11.8 12 Noroeste 26 Noroeste 0 -- -- 91
2019-11-30 21:00:00 11.8 12 Noroeste 37 Noroeste 1.4 -- -- 93
2019-11-30 20:00:00 13.5 6 Nordeste 26 Sudoeste 0 -- -- 92
2019-11-30 19:00:00 14.3 6 Nordeste 34 Sudeste 0 -- -- 81
2019-11-30 18:00:00 14.8 6 Sudeste 28 Sur 0 -- -- 75
2019-11-30 17:00:00 15.2 10 Sudeste 32 Sur 0 -- -- 74
2019-11-30 16:00:00 14.7 12 Sur 38 Sudoeste 0 -- -- 76
2019-11-30 15:00:00 14.5 15 Sudoeste 31 Sudoeste 0 -- -- 74
2019-11-30 14:00:00 14.9 8 Sudoeste 22 Sudoeste 0 -- -- 71
2019-11-30 13:00:00 14.4 5 Sudoeste 20 Oeste 0 -- -- 78
2019-11-30 12:00:00 14.1 4 Oeste 10 Sur 0 -- -- 78
2019-11-30 11:00:00 12.8 6 Sudeste 10 Sur 0 -- -- 89
2019-11-30 10:00:00 11.1 5 Sudeste 10 Sudeste 0 -- -- 95
2019-11-30 09:00:00 8.9 6 Sur 10 Sur 0 -- -- 97
2019-11-30 08:00:00 8.4 6 Sur 10 Sur 0 -- -- 96
2019-11-30 07:00:00 8.9 6 Sur 10 Sur 0 -- -- 96
2019-11-30 06:00:00 9 8 Sur 11 Sur 0 -- -- 96
2019-11-30 05:00:00 8.5 7 Sur 12 Sudeste 0 -- -- 97
2019-11-30 04:00:00 8.5 7 Sudeste 9 Sur 0 -- -- 95
2019-11-30 03:00:00 9.4 8 Sur 11 Sur 0 -- -- 95
2019-11-30 02:00:00 9.8 5 Sudeste 9 Sur 0 -- -- 94
2019-11-30 01:00:00 9.7 6 Sudeste 8 Sudeste 0 -- -- 95
2019-11-30 00:00:00 9.2 6 Sudeste 8 Sudeste 0 -- -- 94
2019-11-29 23:00:00 10 6 Sur 8 Sur 0 -- -- 93
2019-11-29 22:00:00 11 5 Sur 8 Sudeste 0 -- -- 89
2019-11-29 21:00:00 12.5 3 Sudeste 16 Sudeste 0 -- -- 83
2019-11-29 20:00:00 13.8 6 Sudeste 15 Sur 0 -- -- 78
2019-11-29 19:00:00 14.1 5 Sudeste 12 Sudoeste 0 -- -- 78
2019-11-29 18:00:00 15.9 8 Sudoeste 12 Oeste 0 -- -- 68
2019-11-29 17:00:00 17.1 4 Noroeste 13 Oeste 0 -- -- 65
2019-11-29 16:00:00 17.5 7 Oeste 18 Oeste 0 -- -- 65
2019-11-29 15:00:00 17.3 7 Oeste 18 Sudoeste 0 -- -- 63
2019-11-29 14:00:00 17 6 Oeste 18 Noroeste 0 -- -- 65
2019-11-29 13:00:00 16.7 9 Noroeste 18 Noroeste 0 -- -- 68
2019-11-29 12:00:00 16.5 11 Noroeste 23 Noroeste 0 -- -- 70
2019-11-29 11:00:00 15 4 Noroeste 12 Oeste 0 -- -- 76
2019-11-29 10:00:00 12.5 8 Sudeste 12 Sudeste 0 -- -- 88
2019-11-29 09:00:00 11.4 5 Sudeste 10 Sur 0 -- -- 91
2019-11-29 08:00:00 11.5 4 Sudeste 12 Sudeste 0 -- -- 91
2019-11-29 07:00:00 11.9 7 Sudeste 19 Sur 0 -- -- 90
2019-11-29 06:00:00 12.1 14 Sur 19 Sur 0 -- -- 89
2019-11-29 05:00:00 11.9 7 Sur 16 Sur 0 -- -- 90
2019-11-29 04:00:00 12.6 6 Sur 17 Sudeste 0 -- -- 88
2019-11-29 03:00:00 12.5 6 Sur 19 Sudeste 0 -- -- 90
2019-11-29 02:00:00 12.6 5 Sur 20 Sudeste 0 -- -- 90
2019-11-29 01:00:00 12.9 10 Oeste 20 Sur 0 -- -- 87
2019-11-29 00:00:00 11.4 5 Sur 13 Sur 0 -- -- 91
2019-11-28 23:00:00 13.4 0 Calma 20 Sur 0 -- -- 79
2019-11-28 22:00:00 14.1 8 Sur 22 Sudoeste 0 -- -- 74
2019-11-28 21:00:00 14.3 9 Sur 22 Sur 0 -- -- 73
2019-11-28 20:00:00 14.6 8 Sur 21 Sur 0 -- -- 70
2019-11-28 19:00:00 14.9 10 Sur 24 Sur 0 -- -- 69
2019-11-28 18:00:00 15.2 4 Sur 13 Sur 0 -- -- 69
2019-11-28 17:00:00 15.6 3 Oeste 12 Sudoeste 0 -- -- 67
2019-11-28 16:00:00 15.5 4 Oeste 23 Oeste 0 -- -- 71
2019-11-28 15:00:00 15.1 9 Oeste 19 Oeste 0 -- -- 73
2019-11-28 14:00:00 15.3 9 Oeste 19 Oeste 0 -- -- 72
2019-11-28 13:00:00 15 8 Sudoeste 19 Oeste 0 -- -- 72
2019-11-28 12:00:00 15.7 4 Sudeste 21 Sur 0 -- -- 71
2019-11-28 11:00:00 14.2 8 Sudeste 19 Sudeste 0 -- -- 78
2019-11-28 10:00:00 12.1 10 Sur 18 Sur 0 -- -- 89
2019-11-28 09:00:00 11.4 8 Sur 14 Sur 0 -- -- 93
2019-11-28 08:00:00 11.4 7 Sur 21 Sur 0 -- -- 91
2019-11-28 07:00:00 11.4 0 Calma 8 Sur 0 -- -- 92
2019-11-28 06:00:00 11.5 2 Sudoeste 8 Sur 0 -- -- 90
2019-11-28 05:00:00 11.3 3 Sur 9 Sudeste 0 -- -- 91
2019-11-28 04:00:00 11.1 5 Sudeste 9 Sur 0 -- -- 91
2019-11-28 03:00:00 11.4 6 Sur 17 Sudoeste 0 -- -- 88
2019-11-28 02:00:00 11.7 5 Sudoeste 17 Oeste 0 -- -- 83
2019-11-28 01:00:00 11.7 4 Noroeste 11 Noroeste 0 -- -- 82
2019-11-28 00:00:00 10.5 3 Sudeste 6 Sudeste 0 -- -- 91
2019-11-27 23:00:00 10.4 3 Sudeste 8 Oeste 0 -- -- 88
2019-11-27 22:00:00 12.2 4 Oeste 23 Oeste 0 -- -- 78
2019-11-27 21:00:00 12.8 9 Oeste 23 Oeste 0 -- -- 76
2019-11-27 20:00:00 12.6 4 Oeste 12 Sudoeste 0 -- -- 78
2019-11-27 19:00:00 13.2 5 Sudoeste 12 Sudoeste 0 -- -- 72
2019-11-27 18:00:00 14.1 6 Sudoeste 19 Oeste 0 -- -- 65
2019-11-27 17:00:00 14.6 9 Oeste 19 Oeste 0 -- -- 62
2019-11-27 16:00:00 15.5 9 Oeste 27 Noroeste 0 -- -- 62
2019-11-27 15:00:00 14.7 17 Noroeste 28 Noroeste 0 -- -- 62
2019-11-27 14:00:00 14.4 10 Oeste 28 Oeste 0 -- -- 63
2019-11-27 06:00:00 11.7 3 Sudoeste 12 Noroeste 0 -- -- 89
2019-11-27 05:00:00 11.5 6 Oeste 14 Oeste 0 -- -- 90
2019-11-27 04:00:00 13 6 Noroeste 35 Noroeste 0 -- -- 88
2019-11-27 03:00:00 13.2 10 Noroeste 24 Oeste 0.8 -- -- 93
2019-11-27 02:00:00 13.3 8 Sudoeste 28 Oeste 0 -- -- 91
2019-11-27 01:00:00 13.3 6 Noroeste 32 Noroeste 0 -- -- 88
2019-11-27 00:00:00 13.5 6 Oeste 31 Oeste 0 -- -- 86
2019-11-26 23:00:00 14.3 11 Oeste 35 Oeste 0 -- -- 83
2019-11-26 22:00:00 14.3 12 Oeste 28 Sudoeste 0 -- -- 90
2019-11-26 21:00:00 14.4 8 Oeste 38 Sur 1.4 -- -- 92
2019-11-26 20:00:00 14.5 16 Sur 36 Sur 0.8 -- -- 92
2019-11-26 19:00:00 15.2 17 Sur 43 Sudeste 0.8 -- -- 86
2019-11-26 18:00:00 16.9 15 Sudeste 44 Sudeste 0 -- -- 75
2019-11-26 17:00:00 17.3 9 Este 41 Sudeste 0 -- -- 72
2019-11-26 16:00:00 18 19 Sudeste 45 Sur 0 -- -- 69
2019-11-26 15:00:00 17.7 15 Sudeste 41 Sudeste 0 -- -- 69
2019-11-26 14:00:00 17 18 Sudeste 32 Sudeste 0 -- -- 76
2019-11-26 13:00:00 15.8 10 Sur 33 Sudeste 0 -- -- 84
2019-11-26 12:00:00 15.5 18 Sur 45 Sudeste 0.2 -- -- 86
2019-11-26 11:00:00 14.5 10 Este 28 Sudeste 0 -- -- 94
2019-11-26 10:00:00 13.7 16 Sudeste 28 Sudeste 0 -- -- 96
2019-11-26 09:00:00 13.5 17 Sudeste 23 Sudeste 0 -- -- 96
2019-11-26 08:00:00 13.4 15 Sudeste 22 Sudeste 0.2 -- -- 96
2019-11-26 07:00:00 13.2 13 Sur 24 Sur 0 -- -- 97
2019-11-26 06:00:00 12.2 8 Sudeste 22 Sudeste 0 -- -- 95
2019-11-26 05:00:00 12.5 9 Sur 15 Sur 0 -- -- 92
2019-11-26 04:00:00 12.2 7 Sudeste 12 Sudeste 0 -- -- 93
2019-11-26 03:00:00 12.3 6 Sudeste 13 Sur 0 -- -- 95
2019-11-26 02:00:00 12.1 6 Sudeste 11 Sudeste 0 -- -- 94
2019-11-26 01:00:00 13 5 Sudoeste 13 Sudoeste 0 -- -- 90
2019-11-26 00:00:00 13.6 6 Sudoeste 14 Oeste 0 -- -- 87
2019-11-25 23:00:00 13.9 8 Oeste 18 Oeste 0 -- -- 86
2019-11-25 22:00:00 14.2 9 Oeste 23 Oeste 0 -- -- 84
2019-11-25 21:00:00 14.5 9 Oeste 19 Sudoeste 0 -- -- 81
2019-11-25 20:00:00 14.5 5 Oeste 12 Sur 0 -- -- 83
2019-11-25 19:00:00 15.2 5 Sudoeste 17 Oeste 0 -- -- 81
2019-11-25 18:00:00 16.2 7 Oeste 17 Noroeste 0 -- -- 74
2019-11-25 17:00:00 16.8 9 Oeste 22 Oeste 0 -- -- 70
2019-11-25 16:00:00 17.4 9 Noroeste 25 Sudoeste 0 -- -- 72
2019-11-25 15:00:00 16.8 9 Oeste 19 Oeste 0 -- -- 78
2019-11-25 14:00:00 15.6 5 Oeste 19 Oeste 0 -- -- 81
2019-11-25 13:00:00 15.1 5 Noroeste 21 Noroeste 0 -- -- 89
2019-11-25 12:00:00 15.3 8 Noroeste 20 Oeste 0.2 -- -- 90
2019-11-25 11:00:00 14.7 6 Oeste 20 Oeste 0.2 -- -- 95
2019-11-25 10:00:00 14.6 6 Este 24 Sudoeste 0.2 -- -- 94
2019-11-25 09:00:00 14.4 7 Sur 32 Sur 0.4 -- -- 94
2019-11-25 08:00:00 14.1 9 Sudoeste 37 Sur 1 -- -- 93
2019-11-25 07:00:00 13.8 6 Sudoeste 30 Sur 0.6 -- -- 93
2019-11-25 06:00:00 13.8 12 Sudoeste 33 Oeste 0.2 -- -- 92
2019-11-25 05:00:00 13.2 11 Norte 55 Sudoeste 0.2 -- -- 95
2019-11-25 04:00:00 12.3 16 Sudeste 41 Sur 0 -- -- 96
2019-11-25 03:00:00 12 18 Sur 51 Sur 0 -- -- 95
2019-11-25 02:00:00 11.5 19 Sudeste 41 Sur 0 -- -- 94
2019-11-25 01:00:00 11.7 10 Sudeste 28 Sudeste 0 -- -- 89
2019-11-25 00:00:00 11.8 16 Sudeste 27 Sur 0 -- -- 84
2019-11-24 23:00:00 11.9 17 Sur 31 Sudoeste 0 -- -- 82
2019-11-24 22:00:00 12 20 Sur 31 Sudoeste 0 -- -- 82
2019-11-24 21:00:00 11.4 9 Sur 22 Sur 0 -- -- 84
2019-11-24 20:00:00 11.9 9 Sur 29 Noroeste 0 -- -- 82
2019-11-24 19:00:00 12.5 7 Norte 14 Norte 0 -- -- 77
2019-11-24 18:00:00 12.9 7 Sudoeste 19 Oeste 0 -- -- 71
2019-11-24 17:00:00 13.9 11 Oeste 22 Oeste 0 -- -- 65
2019-11-24 16:00:00 13.7 8 Oeste 27 Oeste 0 -- -- 66
2019-11-24 15:00:00 14.5 7 Sudoeste 18 Sudoeste 0 -- -- 66
2019-11-24 14:00:00 13.6 8 Sudoeste 23 Sur 0 -- -- 70
2019-11-24 13:00:00 13.1 5 Oeste 16 Sudeste 0 -- -- 73
2019-11-24 12:00:00 11.7 11 Sur 17 Sur 0 -- -- 80
2019-11-24 11:00:00 8.8 11 Sur 15 Sur 0 -- -- 92
2019-11-24 10:00:00 7.1 8 Sudeste 12 Sudeste 0 -- -- 96
2019-11-24 09:00:00 6.6 6 Sudeste 9 Sudeste 0 -- -- 96
2019-11-24 08:00:00 6.2 0 Calma 18 Oeste 0 -- -- 93
2019-11-24 07:00:00 7.4 9 Noroeste 24 Noroeste 0 -- -- 92
2019-11-24 06:00:00 3.8 0 Calma 8 Oeste 0 -- -- 97
2019-11-24 05:00:00 3.7 4 Sudeste 5 Sudeste 0 -- -- 96
2019-11-24 04:00:00 4.1 3 Sudeste 6 Sudeste 0 -- -- 95
2019-11-24 03:00:00 4.8 5 Sudeste 8 Sudeste 0 -- -- 93
2019-11-24 02:00:00 6.6 3 Sudeste 20 Oeste 0 -- -- 87
2019-11-24 01:00:00 8.3 11 Noroeste 22 Noroeste 0 -- -- 83
2019-11-24 00:00:00 9.3 15 Oeste 26 Noroeste 0 -- -- 77
2019-11-23 23:00:00 9.4 14 Noroeste 24 Oeste 0 -- -- 76
2019-11-23 22:00:00 9.3 12 Oeste 24 Oeste 0 -- -- 77
2019-11-23 21:00:00 9.4 12 Oeste 19 Noroeste 0 -- -- 80
2019-11-23 20:00:00 9.5 7 Noroeste 18 Oeste 0 -- -- 80
2019-11-23 19:00:00 9.8 9 Noroeste 31 Oeste 0 -- -- 77
2019-11-23 18:00:00 11.8 18 Noroeste 29 Noroeste 0 -- -- 70
2019-11-23 17:00:00 12.2 18 Noroeste 33 Noroeste 0 -- -- 66
2019-11-23 16:00:00 13.2 21 Noroeste 33 Noroeste 0 -- -- 63
2019-11-23 15:00:00 12.8 19 Noroeste 37 Noroeste 0 -- -- 66
2019-11-23 14:00:00 12.3 28 Noroeste 45 Noroeste 0 -- -- 69
2019-11-23 13:00:00 12.2 27 Noroeste 51 Noroeste 0 -- -- 70
2019-11-23 12:00:00 11.7 26 Noroeste 43 Noroeste 0 -- -- 73
2019-11-23 11:00:00 10.8 22 Noroeste 36 Noroeste 0 -- -- 71
2019-11-23 10:00:00 10.1 20 Noroeste 32 Noroeste 0 -- -- 79
2019-11-23 09:00:00 9.2 14 Noroeste 33 Noroeste 0 -- -- 82
2019-11-23 08:00:00 9 16 Noroeste 33 Noroeste 0 -- -- 82
2019-11-23 07:00:00 9.3 15 Noroeste 32 Noroeste 0 -- -- 83
2019-11-23 06:00:00 9.4 18 Noroeste 41 Oeste 0 -- -- 83
2019-11-23 05:00:00 10 22 Noroeste 53 Noroeste 0 -- -- 82
2019-11-23 04:00:00 9.8 25 Noroeste 42 Noroeste 0 -- -- 83
2019-11-23 03:00:00 9.8 30 Noroeste 55 Noroeste 0.8 -- -- 81
2019-11-23 02:00:00 11.2 33 Noroeste 57 Noroeste 0 -- -- 79
2019-11-23 01:00:00 11.3 29 Noroeste 62 Noroeste 0 -- -- 84
2019-11-23 00:00:00 11.8 24 Noroeste 51 Sudoeste 0 -- -- 77
2019-11-22 23:00:00 11.9 16 Oeste 54 Noroeste 0 -- -- 76
2019-11-22 22:00:00 12.2 20 Noroeste 51 Noroeste 0 -- -- 77
2019-11-22 21:00:00 12.9 26 Oeste 49 Noroeste 0 -- -- 75
2019-11-22 20:00:00 13.1 21 Oeste 42 Oeste 0 -- -- 76
2019-11-22 19:00:00 13.1 14 Noroeste 44 Oeste 0 -- -- 74
2019-11-22 18:00:00 14.1 19 Oeste 45 Noroeste 0 -- -- 75
2019-11-22 17:00:00 14.6 26 Noroeste 50 Noroeste 0 -- -- 75
2019-11-22 16:00:00 14.9 33 Noroeste 71 Noroeste 6.4 -- -- 84
2019-11-22 15:00:00 15.2 13 Sudoeste 51 Sur 2.6 -- -- 92
2019-11-22 14:00:00 14.9 15 Sudeste 50 Sur 3 -- -- 93
2019-11-22 13:00:00 13.8 17 Sur 39 Sur 2.6 -- -- 94
2019-11-22 12:00:00 13.4 15 Sur 62 Sur 1.2 -- -- 92
2019-11-22 11:00:00 13.3 31 Sur 70 Sur 4.2 -- -- 91
2019-11-22 10:00:00 13.4 14 Sur 37 Sudeste 0.4 -- -- 90
2019-11-22 09:00:00 12.4 21 Sudeste 35 Sudeste 0.2 -- -- 91
2019-11-22 08:00:00 11.9 16 Sudeste 36 Sudeste 0 -- -- 90
2019-11-22 07:00:00 11.1 18 Sudeste 30 Sudoeste 0.6 -- -- 92
2019-11-22 06:00:00 11.2 9 Sur 30 Sudeste 0 -- -- 88
2019-11-22 05:00:00 11 16 Sudeste 32 Sudeste 0 -- -- 90
2019-11-22 04:00:00 11.1 10 Sudeste 27 Sudeste 0 -- -- 91
2019-11-22 03:00:00 11 9 Sudeste 17 Sur 0 -- -- 92
2019-11-22 02:00:00 11.2 5 Sudeste 18 Este 0 -- -- 91
2019-11-22 01:00:00 11.2 6 Sudeste 19 Sudeste 0 -- -- 91
2019-11-22 00:00:00 11.2 8 Sudeste 17 Sudeste 0 -- -- 92
2019-11-21 23:00:00 11.2 7 Sudeste 12 Sudeste 0 -- -- 92
2019-11-21 22:00:00 11.1 5 Sur 15 Sudeste 0 -- -- 92
2019-11-21 21:00:00 11.5 6 Sudeste 15 Sur 0 -- -- 89
2019-11-21 20:00:00 11.9 10 Sur 18 Sur 0 -- -- 88
2019-11-21 19:00:00 12.3 4 Sudoeste 11 Oeste 0 -- -- 86
2019-11-21 18:00:00 12.7 3 Oeste 18 Oeste 0 -- -- 83
2019-11-21 17:00:00 13.2 5 Noroeste 15 Oeste 0 -- -- 82
2019-11-21 16:00:00 13.2 5 Oeste 12 Oeste 0 -- -- 84
2019-11-21 15:00:00 12.6 3 Sudeste 15 Sudeste 0 -- -- 86
2019-11-21 14:00:00 12.2 7 Sur 20 Sur 0.2 -- -- 89
2019-11-21 13:00:00 11.7 10 Sur 19 Sur 0.6 -- -- 91
2019-11-21 12:00:00 11.5 5 Sudeste 19 Sudeste 0.4 -- -- 92
2019-11-21 11:00:00 11 11 Sudeste 18 Sur 0.4 -- -- 93
2019-11-21 10:00:00 10.8 9 Sudeste 24 Sudeste 0.2 -- -- 92
2019-11-21 09:00:00 10.5 5 Sur 27 Sudoeste 0.4 -- -- 92
2019-11-21 08:00:00 10.7 10 Sudeste 22 Sudeste 0 -- -- 91
2019-11-21 07:00:00 10.4 11 Sudeste 22 Sudeste 0 -- -- 92
2019-11-21 06:00:00 10.3 12 Sudeste 19 Sudeste 0 -- -- 92
2019-11-21 05:00:00 10.6 8 Sudeste 17 Sudeste 0 -- -- 92
2019-11-21 04:00:00 10.5 6 Sudeste 16 Sur 0 -- -- 92
2019-11-21 03:00:00 10.3 12 Sudeste 18 Sudeste 0 -- -- 93
2019-11-21 02:00:00 10.3 9 Sudeste 14 Sudeste 0.2 -- -- 92
2019-11-21 01:00:00 10.3 6 Sudeste 17 Sudeste 0 -- -- 92
2019-11-21 00:00:00 10.3 8 Sudeste 20 Sur 0 -- -- 91
2019-11-20 23:00:00 10.2 9 Sudeste 17 Sudeste 0 -- -- 91
2019-11-20 22:00:00 9.1 5 Nordeste 15 Norte 1.4 -- -- 93
2019-11-20 21:00:00 10.1 4 Nordeste 19 Sudeste 0 -- -- 88
2019-11-20 20:00:00 10.3 12 Sudeste 21 Sur 0 -- -- 89
2019-11-20 19:00:00 10.1 6 Sudeste 10 Sur 0 -- -- 89
2019-11-20 18:00:00 11.2 3 Sudoeste 10 Oeste 0 -- -- 84
2019-11-20 17:00:00 12.3 4 Oeste 15 Oeste 0 -- -- 76
2019-11-20 16:00:00 12 8 Sudoeste 24 Sudeste 0 -- -- 80
2019-11-20 15:00:00 10.9 8 Sudeste 23 Sudeste 0 -- -- 88
2019-11-20 14:00:00 10 10 Sudeste 31 Sur 0 -- -- 90
2019-11-20 13:00:00 8.8 13 Sudeste 28 Sudeste 0 -- -- 90
2019-11-20 12:00:00 7.9 18 Sudeste 31 Sur 2 -- -- 92
2019-11-20 11:00:00 7.6 17 Sur 24 Sudeste 0.2 -- -- 88
2019-11-20 10:00:00 6.8 17 Sudeste 27 Sudeste 2.2 -- -- 94
2019-11-20 09:00:00 7 7 Oeste 21 Sur 1.2 -- -- 92
2019-11-20 08:00:00 6.9 9 Sur 17 Sudeste 1.6 -- -- 93
2019-11-20 07:00:00 7.7 8 Sudeste 15 Sudeste 0.6 -- -- 86
2019-11-20 06:00:00 7.4 6 Sudeste 12 Sudeste 0 -- -- 86
2019-11-20 05:00:00 7.2 10 Sudeste 15 Sur 0 -- -- 84
2019-11-20 04:00:00 7.6 10 Sur 17 Sudeste 0 -- -- 79
2019-11-20 03:00:00 6.7 6 Sudeste 12 Sudeste 0 -- -- 86
2019-11-20 02:00:00 6.5 7 Sudeste 12 Este 0 -- -- 86
2019-11-20 01:00:00 5.4 6 Sudeste 9 Sudeste 0 -- -- 94
2019-11-20 00:00:00 4.8 5 Sur 9 Sur 0 -- -- 93
2019-11-19 23:00:00 5 5 Sudeste 10 Sur 0 -- -- 91
2019-11-19 22:00:00 5.3 8 Sur 12 Sudeste 0 -- -- 91
2019-11-19 21:00:00 5.8 5 Sudeste 7 Sudeste 0 -- -- 89
2019-11-19 20:00:00 7.6 2 Norte 10 Oeste 0 -- -- 80
2019-11-19 19:00:00 9.9 5 Oeste 9 Sudoeste 0 -- -- 67
2019-11-19 18:00:00 11.5 4 Oeste 11 Oeste 0 -- -- 59
2019-11-19 17:00:00 12.7 3 Sudoeste 17 Oeste 0 -- -- 53
2019-11-19 16:00:00 13.1 5 Sudoeste 14 Sur 0 -- -- 47
2019-11-19 15:00:00 13 6 Sudoeste 15 Oeste 0 -- -- 49
2019-11-19 14:00:00 13.3 7 Oeste 18 Oeste 0 -- -- 54
2019-11-19 13:00:00 12.7 7 Oeste 21 Oeste 0 -- -- 57
2019-11-19 12:00:00 10.3 6 Sudeste 9 Sudeste 0 -- -- 75
2019-11-19 11:00:00 8.3 6 Sudeste 14 Sudeste 0 -- -- 82
2019-11-19 10:00:00 6 8 Sudeste 13 Sudeste 0 -- -- 90
2019-11-19 09:00:00 4.1 5 Sur 13 Sudeste 0 -- -- 94
2019-11-19 08:00:00 3.1 9 Sur 13 Sur 0 -- -- 95
2019-11-19 07:00:00 2.8 8 Sur 11 Sur 0 -- -- 95
2019-11-19 06:00:00 3.1 6 Sur 11 Sur 0 -- -- 94
2019-11-19 05:00:00 3.8 6 Sur 10 Sur 0 -- -- 95
2019-11-19 04:00:00 3.2 6 Sudeste 12 Sur 0 -- -- 95
2019-11-19 03:00:00 3.1 7 Sudeste 12 Sur 0 -- -- 95
2019-11-19 02:00:00 3.7 7 Sur 9 Sur 0 -- -- 94
2019-11-19 01:00:00 3.8 7 Sudeste 10 Sudeste 0 -- -- 94
2019-11-19 00:00:00 3.7 5 Sudeste 9 Sudeste 0 -- -- 94
2019-11-18 23:00:00 4.6 6 Sudeste 12 Sur 0 -- -- 91
2019-11-18 22:00:00 4.8 7 Sudeste 8 Sudeste 0 -- -- 91
2019-11-18 21:00:00 5.1 5 Sur 9 Sur 0 -- -- 92
2019-11-18 20:00:00 5.8 3 Sudeste 6 Sudeste 0 -- -- 90
2019-11-18 19:00:00 7.7 2 Sudeste 5 Noroeste 0 -- -- 83
2019-11-18 18:00:00 10.2 4 Noroeste 18 Noroeste 0 -- -- 69
2019-11-18 17:00:00 12.2 9 Noroeste 22 Norte 0 -- -- 63
2019-11-18 16:00:00 12.7 10 Noroeste 18 Norte 0 -- -- 63
2019-11-18 15:00:00 11.9 14 Noroeste 26 Norte 0 -- -- 69
2019-11-18 14:00:00 11.3 13 Noroeste 23 Norte 0 -- -- 74
2019-11-18 13:00:00 10.2 13 Noroeste 29 Noroeste 0 -- -- 75
2019-11-18 12:00:00 9.5 16 Noroeste 24 Noroeste 0 -- -- 77
2019-11-18 11:00:00 8.8 16 Noroeste 22 Norte 0 -- -- 79
2019-11-18 10:00:00 7.5 12 Noroeste 16 Noroeste 0 -- -- 84
2019-11-18 09:00:00 5.4 2 Noroeste 15 Noroeste 0 -- -- 90
2019-11-18 08:00:00 4.5 8 Noroeste 22 Norte 0 -- -- 91
2019-11-18 07:00:00 5.7 12 Norte 19 Norte 0 -- -- 86
2019-11-18 06:00:00 5.8 14 Norte 22 Noroeste 0 -- -- 86
2019-11-18 05:00:00 6 13 Norte 24 Noroeste 0 -- -- 86
2019-11-18 04:00:00 6.3 11 Noroeste 20 Noroeste 0 -- -- 89
2019-11-18 03:00:00 7.3 11 Noroeste 27 Noroeste 0 -- -- 89
2019-11-18 02:00:00 8.4 24 Noroeste 40 Noroeste 0 -- -- 90
2019-11-18 01:00:00 9.9 25 Noroeste 38 Noroeste 0 -- -- 88
2019-11-18 00:00:00 11.3 15 Noroeste 32 Noroeste 5.6 -- -- 97
2019-11-17 23:00:00 12.3 14 Oeste 32 Oeste 0.8 -- -- 89
2019-11-17 22:00:00 12.7 10 Oeste 30 Oeste 0.2 -- -- 88
2019-11-17 21:00:00 12.7 9 Noroeste 37 Noroeste 0 -- -- 87
2019-11-17 20:00:00 12.6 11 Noroeste 30 Oeste 0 -- -- 88
2019-11-17 19:00:00 13.2 14 Noroeste 30 Oeste 2.4 -- -- 89
2019-11-17 18:00:00 13.4 16 Noroeste 35 Oeste 0.6 -- -- 87
2019-11-17 17:00:00 13.4 17 Oeste 33 Oeste 0 -- -- 90
2019-11-17 16:00:00 13.3 6 Oeste 23 Sudoeste 0.6 -- -- 91
2019-11-17 15:00:00 13.3 6 Oeste 21 Oeste 0 -- -- 90
2019-11-17 14:00:00 12.7 9 Sudoeste 23 Oeste 0 -- -- 91
2019-11-17 13:00:00 11.4 6 Oeste 28 Sudoeste 0.2 -- -- 93
2019-11-17 12:00:00 10.2 8 Sur 27 Oeste 0 -- -- 96
2019-11-17 11:00:00 9.1 11 Sudeste 24 Sudeste 0 -- -- 97
2019-11-17 10:00:00 7.9 12 Sur 27 Sudoeste 0 -- -- 96
2019-11-17 09:00:00 7.2 6 Sur 27 Sudeste 0 -- -- 95
2019-11-17 08:00:00 6.5 16 Sudeste 24 Sur 0 -- -- 95
2019-11-17 07:00:00 6.3 13 Sur 22 Sudoeste 0.2 -- -- 90
2019-11-17 06:00:00 6.5 10 Sudeste 18 Noroeste 0.2 -- -- 88
2019-11-17 05:00:00 7.3 7 Oeste 20 Oeste 0 -- -- 79
2019-11-17 04:00:00 6.2 8 Este 17 Oeste 0 -- -- 75
2019-11-17 03:00:00 6.9 8 Oeste 17 Oeste 0 -- -- 72
2019-11-17 02:00:00 6.2 3 Noroeste 12 Oeste 0 -- -- 73
2019-11-17 01:00:00 5 3 Este 16 Oeste 0 -- -- 82
2019-11-17 00:00:00 6.9 7 Oeste 17 Oeste 0 -- -- 73
2019-11-16 23:00:00 7.1 10 Oeste 21 Oeste 0 -- -- 70
2019-11-16 22:00:00 7.9 15 Oeste 23 Oeste 0 -- -- 64
2019-11-16 21:00:00 4.1 2 Oeste 5 Oeste 0 -- -- 79
2019-11-16 20:00:00 5.3 2 Sudeste 5 Este 0 -- -- 73
2019-11-16 19:00:00 7.7 0 Calma 18 Noroeste 0 -- -- 63
2019-11-16 18:00:00 10.7 15 Noroeste 21 Oeste 0 -- -- 49
2019-11-16 17:00:00 11.8 18 Noroeste 25 Noroeste 0 -- -- 44
2019-11-16 16:00:00 12.2 13 Noroeste 22 Norte 0 -- -- 44
2019-11-16 15:00:00 11.8 16 Norte 24 Noroeste 0 -- -- 45
2019-11-16 14:00:00 11.1 14 Noroeste 24 Norte 0 -- -- 49
2019-11-16 13:00:00 9.9 15 Norte 23 Norte 0 -- -- 53
2019-11-16 12:00:00 8.2 13 Noroeste 22 Noroeste 0 -- -- 61
2019-11-16 11:00:00 6.9 15 Noroeste 21 Noroeste 0 -- -- 69
2019-11-16 10:00:00 4.6 10 Noroeste 13 Noroeste 0 -- -- 81
2019-11-16 09:00:00 0 0 Calma 5 Sudeste 0 -- -- 96
2019-11-16 08:00:00 -1.5 3 Sudeste 6 Sur 0 -- -- 95
2019-11-16 07:00:00 -1.2 4 Sudeste 6 Sudeste 0 -- -- 95
2019-11-16 06:00:00 -1.1 2 Sudeste 6 Sudeste 0 -- -- 94
2019-11-16 05:00:00 -0.8 4 Sur 6 Sudeste 0 -- -- 94
2019-11-16 04:00:00 -0.5 2 Sudeste 5 Sudeste 0 -- -- 93
2019-11-16 03:00:00 -0.1 2 Sudeste 6 Sur 0 -- -- 92
2019-11-16 02:00:00 0.5 0 Calma 4 Sur 0 -- -- 90
2019-11-16 01:00:00 1.5 0 Calma 5 Norte 0 -- -- 86
2019-11-16 00:00:00 3.9 4 Noroeste 14 Noroeste 0 -- -- 76
2019-11-15 23:00:00 5.3 10 Norte 26 Noroeste 0 -- -- 69
2019-11-15 22:00:00 6.2 14 Noroeste 24 Noroeste 0 -- -- 64
2019-11-15 21:00:00 6.9 15 Noroeste 30 Noroeste 0 -- -- 62
2019-11-15 20:00:00 7.6 17 Noroeste 33 Noroeste 0 -- -- 58
2019-11-15 19:00:00 8.8 18 Noroeste 30 Noroeste 0 -- -- 54
2019-11-15 18:00:00 9.6 17 Noroeste 32 Noroeste 0 -- -- 49
2019-11-15 17:00:00 10.7 19 Noroeste 31 Noroeste 0 -- -- 50
2019-11-15 16:00:00 10.8 21 Noroeste 37 Noroeste 0 -- -- 51
2019-11-15 15:00:00 11.3 25 Noroeste 39 Noroeste 0 -- -- 48
2019-11-15 14:00:00 10.4 23 Noroeste 36 Noroeste 0 -- -- 54
2019-11-15 13:00:00 9.5 25 Noroeste 37 Noroeste 0 -- -- 56
2019-11-15 12:00:00 8.7 25 Noroeste 41 Noroeste 0 -- -- 61
2019-11-15 11:00:00 7.9 26 Noroeste 37 Noroeste 0 -- -- 64
2019-11-15 10:00:00 7 23 Noroeste 43 Oeste 0 -- -- 68
2019-11-15 09:00:00 6.1 21 Noroeste 41 Oeste 0 -- -- 72
2019-11-15 08:00:00 5.7 21 Oeste 41 Noroeste 0 -- -- 74
2019-11-15 07:00:00 5.9 17 Noroeste 41 Noroeste 0 -- -- 67
2019-11-15 06:00:00 6.3 24 Noroeste 40 Oeste 0 -- -- 70
2019-11-15 05:00:00 6 21 Noroeste 35 Noroeste 0 -- -- 76
2019-11-15 04:00:00 6 22 Noroeste 44 Noroeste 0 -- -- 75
2019-11-15 03:00:00 6.2 21 Noroeste 37 Noroeste 0 -- -- 75
2019-11-15 02:00:00 6.1 14 Oeste 30 Noroeste 0 -- -- 76
2019-11-15 01:00:00 7.3 24 Noroeste 40 Oeste 0 -- -- 69
2019-11-15 00:00:00 7.6 22 Noroeste 41 Noroeste 0 -- -- 67
2019-11-14 23:00:00 8.2 23 Noroeste 42 Oeste 0 -- -- 66
2019-11-14 22:00:00 8.7 20 Noroeste 43 Noroeste 0 -- -- 69
2019-11-14 21:00:00 8.3 14 Oeste 27 Noroeste 0 -- -- 80
2019-11-14 20:00:00 8.7 6 Oeste 33 Oeste 0 -- -- 77
2019-11-14 19:00:00 9.1 15 Noroeste 66 Noroeste 0 -- -- 71
2019-11-14 18:00:00 9.9 34 Noroeste 51 Noroeste 0 -- -- 69
2019-11-14 17:00:00 11.3 29 Noroeste 43 Noroeste 0 -- -- 61
2019-11-14 16:00:00 11.1 23 Noroeste 68 Noroeste 0 -- -- 64
2019-11-14 15:00:00 11.2 30 Noroeste 48 Noroeste 0 -- -- 58
2019-11-14 14:00:00 10.7 31 Noroeste 46 Noroeste 0 -- -- 65
2019-11-14 13:00:00 9.9 29 Noroeste 54 Noroeste 0 -- -- 74
2019-11-14 12:00:00 9.4 29 Noroeste 50 Noroeste 0 -- -- 81
2019-11-14 11:00:00 8.4 25 Noroeste 55 Noroeste 1.4 -- -- 93
2019-11-14 10:00:00 10.4 28 Noroeste 49 Noroeste 0 -- -- 84
2019-11-14 09:00:00 10.8 27 Noroeste 45 Noroeste 0.4 -- -- 84
2019-11-14 08:00:00 11 18 Noroeste 38 Noroeste 0 -- -- 84
2019-11-14 07:00:00 10.7 13 Oeste 36 Oeste 0 -- -- 84
2019-11-14 06:00:00 10.5 9 Oeste 25 Noroeste 0 -- -- 83
2019-11-14 05:00:00 10.2 10 Noroeste 29 Noroeste 0 -- -- 86
2019-11-14 04:00:00 9.8 8 Sudoeste 28 Oeste 0 -- -- 83
2019-11-14 03:00:00 9.8 11 Noroeste 30 Noroeste 0 -- -- 79
2019-11-14 02:00:00 10.1 16 Noroeste 27 Noroeste 0 -- -- 80
2019-11-14 01:00:00 9.9 10 Oeste 22 Oeste 0 -- -- 79
2019-11-14 00:00:00 10.3 12 Noroeste 21 Noroeste 0 -- -- 80
2019-11-13 23:00:00 11 6 Oeste 18 Oeste 0 -- -- 83
2019-11-13 22:00:00 10.9 4 Noroeste 15 Noroeste 0 -- -- 88
2019-11-13 21:00:00 11.7 8 Noroeste 18 Noroeste 0 -- -- 86
2019-11-13 20:00:00 13.3 0 Calma 10 Sur 0 -- -- 77
2019-11-13 19:00:00 14.5 3 Oeste 27 Noroeste 0 -- -- 71
2019-11-13 18:00:00 16.2 17 Noroeste 34 Noroeste 0 -- -- 65
2019-11-13 17:00:00 16.9 19 Noroeste 33 Noroeste 0 -- -- 61
2019-11-13 16:00:00 18.5 18 Noroeste 30 Noroeste 0 -- -- 60
2019-11-13 15:00:00 18.4 18 Noroeste 30 Noroeste 0 -- -- 61
2019-11-13 14:00:00 17.5 14 Noroeste 28 Noroeste 0 -- -- 66
2019-11-13 13:00:00 16.6 15 Noroeste 36 Noroeste 0 -- -- 72
2019-11-13 12:00:00 16 23 Noroeste 37 Noroeste 0 -- -- 73
2019-11-13 11:00:00 14.6 22 Noroeste 41 Noroeste 0 -- -- 80
2019-11-13 10:00:00 13.5 17 Noroeste 28 Noroeste 0.2 -- -- 93
2019-11-13 09:00:00 12.7 8 Oeste 26 Sur 0 -- -- 93
2019-11-13 08:00:00 12.7 10 Sudoeste 33 Oeste 0 -- -- 91
2019-11-13 07:00:00 12.9 14 Oeste 42 Oeste 0 -- -- 88
2019-11-13 06:00:00 13.1 17 Oeste 35 Oeste 0 -- -- 85
2019-11-13 05:00:00 12.9 13 Oeste 44 Noroeste 0 -- -- 86
2019-11-13 04:00:00 13.2 19 Noroeste 32 Noroeste 0 -- -- 80
2019-11-13 03:00:00 12.9 17 Noroeste 32 Norte 0 -- -- 80
2019-11-13 02:00:00 12.5 10 Noroeste 23 Noroeste 0 -- -- 86
2019-11-13 01:00:00 12.7 8 Oeste 26 Oeste 0 -- -- 82
2019-11-13 00:00:00 12.6 6 Oeste 21 Oeste 0 -- -- 81
2019-11-12 23:00:00 12.5 6 Noroeste 21 Noroeste 0 -- -- 82
2019-11-12 22:00:00 12.6 7 Noroeste 26 Sudoeste 0 -- -- 78
2019-11-12 21:00:00 12.2 7 Noroeste 28 Noroeste 0 -- -- 77
2019-11-12 20:00:00 12.9 21 Noroeste 34 Oeste 0 -- -- 73
2019-11-12 19:00:00 11.8 6 Noroeste 19 Noroeste 0 -- -- 70
2019-11-12 18:00:00 13.2 12 Noroeste 34 Noroeste 0 -- -- 61
2019-11-12 17:00:00 14.7 20 Noroeste 29 Noroeste 0 -- -- 55
2019-11-12 16:00:00 15.4 22 Noroeste 39 Noroeste 0 -- -- 52
2019-11-12 15:00:00 15 28 Noroeste 39 Noroeste 0 -- -- 51
2019-11-12 14:00:00 14.3 25 Noroeste 44 Noroeste 0 -- -- 54
2019-11-12 13:00:00 13.1 26 Noroeste 38 Noroeste 0 -- -- 55
2019-11-12 12:00:00 12 20 Noroeste 36 Noroeste 0 -- -- 61
2019-11-12 11:00:00 11 26 Noroeste 33 Noroeste 0 -- -- 64
2019-11-12 10:00:00 9 8 Noroeste 20 Noroeste 0 -- -- 87
2019-11-12 09:00:00 5.4 3 Sudeste 6 Sur 0 -- -- 98
2019-11-12 08:00:00 4.5 4 Sudeste 6 Sur 0 -- -- 97
2019-11-12 07:00:00 4.9 4 Sur 7 Sur 0 -- -- 97
2019-11-12 06:00:00 5.4 2 Sudeste 6 Sudeste 0 -- -- 96
2019-11-12 05:00:00 6.6 4 Sur 6 Sur 0 -- -- 94
2019-11-12 04:00:00 8 5 Noroeste 9 Norte 0 -- -- 94
2019-11-12 03:00:00 7.9 4 Noroeste 9 Noroeste 0 -- -- 93
2019-11-12 02:00:00 7.8 0 Calma 12 Noroeste 0 -- -- 92
2019-11-12 01:00:00 9.1 10 Noroeste 16 Norte 0 -- -- 91
2019-11-12 00:00:00 9.3 10 Noroeste 17 Noroeste 0 -- -- 89
2019-11-11 23:00:00 9.7 8 Noroeste 25 Noroeste 0 -- -- 89
2019-11-11 22:00:00 11.5 15 Norte 25 Noroeste 0 -- -- 83
2019-11-11 21:00:00 12 12 Norte 23 Norte 0 -- -- 85
2019-11-11 20:00:00 12.9 10 Noroeste 20 Noroeste 0 -- -- 84
2019-11-11 19:00:00 14.5 14 Noroeste 25 Noroeste 0 -- -- 80
2019-11-11 18:00:00 15.5 13 Noroeste 27 Noroeste 0 -- -- 82
2019-11-11 17:00:00 15.9 17 Noroeste 26 Noroeste 0 -- -- 83
2019-11-11 16:00:00 15.8 16 Noroeste 26 Noroeste 0 -- -- 84
2019-11-11 15:00:00 15 17 Noroeste 30 Noroeste 0 -- -- 88
2019-11-11 14:00:00 14.8 17 Noroeste 27 Noroeste 0 -- -- 88
2019-11-11 13:00:00 14.5 19 Noroeste 27 Noroeste 0 -- -- 89
2019-11-11 12:00:00 13.5 4 Norte 13 Oeste 0 -- -- 95
2019-11-11 11:00:00 12 5 Noroeste 9 Noroeste 0 -- -- 96
2019-11-11 10:00:00 10.9 0 Calma 12 Oeste 0.2 -- -- 96
2019-11-11 09:00:00 10.1 5 Sur 9 Sudeste 0 -- -- 97
2019-11-11 08:00:00 9.8 4 Sudeste 6 Sudeste 0 -- -- 98
2019-11-11 07:00:00 9.6 0 Calma 4 Sur 0.2 -- -- 98
2019-11-11 06:00:00 9.5 0 Calma 3 Este 0.2 -- -- 98
2019-11-11 05:00:00 9.4 0 Calma 3 Sur 0 -- -- 98
2019-11-11 04:00:00 9.3 2 Norte 8 Noroeste 0.4 -- -- 98
2019-11-11 03:00:00 9.2 6 Noroeste 13 Noroeste 0.2 -- -- 97
2019-11-11 02:00:00 9.1 8 Noroeste 12 Noroeste 0.4 -- -- 97
2019-11-11 01:00:00 9 7 Noroeste 15 Noroeste 0.4 -- -- 96
2019-11-11 00:00:00 9.5 10 Noroeste 21 Noroeste 0 -- -- 90